Time;durP1;ratioP1;P1;durP2;ratioP2;P2;SDS_P1;SDS_P2;PMS_P1;PMS_P2;Temp;Humidity;BMP_temperature;BMP_pressure;BME280_temperature;BME280_humidity;BME280_pressure;Samples;Min_cycle;Max_cycle;Signal;HPM_P1;HPM_P2
2022/12/29 00:00:01;;;;;;;1.30;1.15;;;;;;;12.05;79.90;99856.59;3564643;40;20147;-62
2022/12/29 00:02:26;;;;;;;1.42;1.10;;;;;;;12.04;79.05;99850.34;3568933;40;20092;-62
2022/12/29 00:04:52;;;;;;;0.80;0.80;;;;;;;12.05;78.90;99849.38;3566391;40;20057;-62
2022/12/29 00:07:18;;;;;;;3.05;0.80;;;;;;;12.02;77.92;99844.25;3566659;40;20049;-63
2022/12/29 00:09:44;;;;;;;0.85;0.80;;;;;;;11.97;78.56;99857.22;3569507;40;20354;-64
2022/12/29 00:12:10;;;;;;;2.25;0.73;;;;;;;11.84;79.22;99843.94;3570151;40;20110;-62
2022/12/29 00:17:20;;;;;;;0.77;0.40;;;;;;;11.72;79.35;99828.75;3567061;40;20079;-61
2022/12/29 00:36:23;;;;;;;0.50;0.50;;;;;;;11.32;83.41;99810.50;3564838;40;20063;-64
2022/12/29 00:44:32;;;;;;;1.30;1.20;;;;;;;11.22;85.78;99800.59;3566303;40;20047;-63
2022/12/29 00:47:02;;;;;;;1.85;1.10;;;;;;;11.25;86.40;99790.44;3565936;40;20370;-65
2022/12/29 00:49:31;;;;;;;1.65;1.25;;;;;;;11.23;87.16;99787.03;3564351;40;20063;-64
2022/12/29 00:52:08;;;;;;;2.05;1.48;;;;;;;11.25;87.87;99782.38;3559081;40;20052;-65
2022/12/29 00:54:37;;;;;;;1.80;1.70;;;;;;;11.25;88.08;99778.84;3567969;40;20380;-64
2022/12/29 00:57:07;;;;;;;2.28;2.08;;;;;;;11.26;88.15;99770.66;3565610;40;20102;-64
2022/12/29 00:59:35;;;;;;;3.05;2.28;;;;;;;11.21;88.84;99775.53;3563395;40;20060;-63
2022/12/29 01:02:01;;;;;;;2.28;2.05;;;;;;;11.32;89.14;99775.53;3565424;40;20131;-63
2022/12/29 01:04:26;;;;;;;2.65;2.10;;;;;;;11.34;89.41;99776.25;3567017;40;20080;-63
2022/12/29 01:06:52;;;;;;;2.30;2.10;;;;;;;11.36;89.01;99760.84;3567709;40;20064;-63
2022/12/29 01:12:06;;;;;;;1.83;1.73;;;;;;;11.48;88.33;99748.22;3566662;40;20666;-63
2022/12/29 01:14:31;;;;;;;2.05;1.67;;;;;;;11.50;88.06;99756.16;3568231;40;20296;-63
2022/12/29 01:16:57;;;;;;;1.40;1.30;;;;;;;11.55;87.87;99756.63;3564162;40;20076;-63
2022/12/29 01:19:24;;;;;;;1.98;1.40;;;;;;;11.57;86.93;99760.03;3565299;40;20061;-63
2022/12/29 01:21:49;;;;;;;1.58;1.40;;;;;;;11.63;86.41;99756.84;3566454;40;20060;-63
2022/12/29 01:24:18;;;;;;;1.40;1.27;;;;;;;11.63;85.49;99763.06;3565879;40;20062;-63
2022/12/29 01:26:45;;;;;;;2.70;1.50;;;;;;;11.66;85.51;99745.81;3564200;40;20124;-63
2022/12/29 01:29:11;;;;;;;3.20;1.35;;;;;;;11.68;85.05;99749.25;3564862;40;20060;-63
2022/12/29 01:31:37;;;;;;;2.95;1.20;;;;;;;11.71;84.37;99748.13;3564852;40;20065;-63
2022/12/29 01:34:03;;;;;;;1.70;1.15;;;;;;;11.71;83.85;99740.91;3562648;40;20053;-63
2022/12/29 01:36:29;;;;;;;0.90;0.85;;;;;;;11.74;83.29;99743.34;3563909;40;20063;-63
2022/12/29 01:38:56;;;;;;;1.70;0.98;;;;;;;11.77;82.74;99742.25;3568972;40;20155;-64
2022/12/29 01:41:21;;;;;;;1.70;0.90;;;;;;;11.80;81.99;99745.53;3564274;40;20060;-63
2022/12/29 01:43:51;;;;;;;3.17;0.90;;;;;;;11.85;81.82;99751.38;3566032;40;20793;-63
2022/12/29 01:46:44;;;;;;;0.88;0.75;;;;;;;11.91;81.02;99743.78;3567481;40;20056;-63
2022/12/29 01:49:22;;;;;;;1.67;0.75;;;;;;;11.93;81.14;99736.44;3569504;40;20139;-63
2022/12/29 01:52:01;;;;;;;3.17;1.42;;;;;;;11.92;80.63;99734.72;3569322;40;20411;-63
2022/12/29 01:54:39;;;;;;;1.50;0.80;;;;;;;11.96;80.11;99741.56;3564951;40;20049;-63
2022/12/29 01:57:14;;;;;;;2.08;0.93;;;;;;;12.00;79.86;99743.00;3568166;40;20597;-63
2022/12/29 01:59:52;;;;;;;2.22;0.75;;;;;;;12.05;79.40;99746.16;3567368;40;20451;-63
2022/12/29 02:02:17;;;;;;;2.03;0.77;;;;;;;12.07;78.84;99746.88;3569913;40;20130;-63
2022/12/29 02:04:44;;;;;;;1.77;0.70;;;;;;;12.07;78.41;99734.25;3565507;40;20378;-63
2022/12/29 02:07:18;;;;;;;1.52;0.77;;;;;;;12.13;77.79;99749.06;3569768;40;20157;-63
2022/12/29 02:09:49;;;;;;;1.77;0.82;;;;;;;12.16;77.29;99746.09;3567985;40;20048;-63
2022/12/29 02:12:20;;;;;;;3.80;1.00;;;;;;;12.19;77.53;99735.06;3568953;40;20059;-63
2022/12/29 02:14:53;;;;;;;4.25;0.98;;;;;;;12.21;76.88;99741.19;3565235;40;20064;-63
2022/12/29 02:18:07;;;;;;;2.15;0.70;;;;;;;12.22;76.67;99734.78;3564674;40;20044;-63
2022/12/29 02:21:23;;;;;;;2.33;0.80;;;;;;;12.25;76.44;99741.75;3567392;40;20056;-63
2022/12/29 02:24:12;;;;;;;2.80;0.88;;;;;;;12.26;76.31;99741.63;3564984;40;20749;-63
2022/12/29 02:27:32;;;;;;;2.47;0.90;;;;;;;12.26;76.56;99738.06;3565365;40;20056;-63
2022/12/29 02:30:08;;;;;;;2.25;0.93;;;;;;;12.25;76.43;99729.13;3550708;40;20075;-63
2022/12/29 02:33:01;;;;;;;4.43;0.90;;;;;;;12.28;75.83;99715.41;3568561;40;20335;-63
2022/12/29 02:35:56;;;;;;;1.10;0.65;;;;;;;12.25;76.24;99715.66;3568207;40;20049;-63
2022/12/29 02:38:57;;;;;;;2.17;0.95;;;;;;;12.25;76.31;99707.59;3566535;40;20088;-62
2022/12/29 02:41:33;;;;;;;2.03;0.70;;;;;;;12.21;76.48;99716.94;3565264;40;20059;-62
2022/12/29 02:44:12;;;;;;;3.55;1.02;;;;;;;12.19;76.93;99721.59;3567098;40;20251;-63
2022/12/29 02:46:46;;;;;;;1.55;0.95;;;;;;;12.19;77.52;99726.13;3569491;40;20771;-63
2022/12/29 02:49:59;;;;;;;2.85;0.98;;;;;;;12.17;77.16;99723.53;3569206;40;20048;-63
2022/12/29 02:52:45;;;;;;;2.55;0.98;;;;;;;12.13;77.32;99710.47;3564715;40;20584;-63
2022/12/29 02:55:11;;;;;;;1.25;0.60;;;;;;;12.13;77.29;99713.19;3566393;40;20072;-63
2022/12/29 02:57:37;;;;;;;3.00;0.70;;;;;;;12.03;77.73;99705.03;3556647;40;20408;-62
2022/12/29 03:00:07;;;;;;;2.42;0.85;;;;;;;12.08;77.43;99716.25;3568464;40;20060;-65
2022/12/29 03:03:14;;;;;;;2.63;0.75;;;;;;;12.01;77.98;99699.75;3567268;40;21143;-63
2022/12/29 03:06:07;;;;;;;0.63;0.63;;;;;;;11.99;77.16;99690.13;3569019;40;20388;-63
2022/12/29 03:08:48;;;;;;;2.55;0.70;;;;;;;12.03;77.25;99700.50;3567768;40;20075;-64
2022/12/29 03:17:57;;;;;;;1.42;0.70;;;;;;;12.02;76.62;99708.69;3569606;40;20044;-64
2022/12/29 03:20:41;;;;;;;1.63;0.82;;;;;;;12.02;76.96;99706.00;3569627;40;20048;-64
2022/12/29 03:23:09;;;;;;;1.52;0.75;;;;;;;12.02;77.06;99695.22;3571244;40;20064;-64
2022/12/29 03:25:48;;;;;;;3.53;0.90;;;;;;;12.04;76.69;99691.44;3569123;40;20064;-65
2022/12/29 03:28:44;;;;;;;3.38;1.10;;;;;;;12.02;76.80;99688.03;3569620;40;20291;-64
2022/12/29 03:31:14;;;;;;;2.28;1.05;;;;;;;11.99;77.67;99692.84;3570403;40;20052;-64
2022/12/29 03:33:44;;;;;;;1.33;0.60;;;;;;;11.97;77.35;99692.94;3570322;40;20052;-65
2022/12/29 03:36:23;;;;;;;2.50;0.70;;;;;;;11.92;77.21;99684.41;3569527;40;20081;-65
2022/12/29 03:39:05;;;;;;;2.05;0.70;;;;;;;11.92;77.39;99680.84;3566946;40;20346;-65
2022/12/29 03:41:35;;;;;;;2.85;0.70;;;;;;;11.84;77.58;99697.66;3565919;40;20317;-65
2022/12/29 03:44:01;;;;;;;2.55;0.90;;;;;;;11.80;77.48;99699.75;3567419;40;20067;-65
2022/12/29 03:46:26;;;;;;;2.42;0.90;;;;;;;11.72;77.85;99701.38;3569751;40;20060;-65
2022/12/29 03:48:52;;;;;;;2.17;0.90;;;;;;;11.68;78.03;99687.31;3568991;40;20056;-65
2022/12/29 03:51:18;;;;;;;2.50;1.05;;;;;;;11.67;77.74;99698.22;3568451;40;20084;-65
2022/12/29 03:53:43;;;;;;;3.47;0.77;;;;;;;11.65;77.79;99709.13;3569066;40;20067;-65
2022/12/29 03:56:09;;;;;;;1.80;0.93;;;;;;;11.63;77.72;99705.69;3567723;40;20265;-65
2022/12/29 03:58:34;;;;;;;2.50;1.02;;;;;;;11.62;78.38;99718.28;3569877;40;20292;-65
2022/12/29 04:01:00;;;;;;;3.00;0.80;;;;;;;11.59;78.45;99725.78;3565762;40;20444;-65
2022/12/29 04:03:26;;;;;;;2.20;0.70;;;;;;;11.58;78.96;99721.38;3569851;40;20412;-66
2022/12/29 04:05:51;;;;;;;4.00;0.95;;;;;;;11.56;79.20;99724.19;3567032;40;20067;-66
2022/12/29 04:08:17;;;;;;;2.85;0.90;;;;;;;11.50;79.13;99713.94;3569529;40;20064;-67
2022/12/29 04:10:42;;;;;;;4.15;0.95;;;;;;;11.39;79.79;99696.00;3569148;40;20051;-67
2022/12/29 04:13:08;;;;;;;2.97;0.98;;;;;;;11.31;81.00;99708.38;3567171;40;20133;-66
2022/12/29 04:15:34;;;;;;;6.90;0.85;;;;;;;11.26;80.82;99716.84;3569555;40;20383;-64
2022/12/29 04:17:59;;;;;;;3.83;0.80;;;;;;;11.15;81.26;99738.38;3568468;40;20056;-64
2022/12/29 04:23:09;;;;;;;4.22;1.10;;;;;;;11.01;81.58;99734.13;3567590;40;20331;-63
2022/12/29 04:25:35;;;;;;;4.63;1.10;;;;;;;11.01;81.57;99738.66;3568353;40;20064;-63
2022/12/29 04:28:00;;;;;;;6.15;1.23;;;;;;;10.97;81.48;99747.94;3567983;40;20061;-64
2022/12/29 04:30:26;;;;;;;2.33;0.70;;;;;;;10.93;81.17;99731.19;3569424;40;20059;-63
2022/12/29 04:32:53;;;;;;;6.68;0.80;;;;;;;10.99;80.66;99741.47;3568206;40;20061;-63
2022/12/29 04:35:18;;;;;;;4.75;1.23;;;;;;;10.95;80.50;99737.31;3568171;40;20105;-63
2022/12/29 04:37:44;;;;;;;3.33;0.93;;;;;;;10.96;80.35;99746.25;3567677;40;20048;-63
2022/12/29 04:40:10;;;;;;;5.30;1.00;;;;;;;10.92;80.44;99742.94;3566631;40;20166;-63
2022/12/29 04:42:36;;;;;;;3.30;0.77;;;;;;;10.87;80.01;99743.28;3567867;40;20048;-63
2022/12/29 04:45:02;;;;;;;4.00;1.05;;;;;;;10.88;79.69;99750.41;3565775;40;20430;-63
2022/12/29 04:47:27;;;;;;;4.88;1.00;;;;;;;10.81;78.78;99749.16;3568685;40;20425;-63
2022/12/29 04:49:53;;;;;;;4.00;1.00;;;;;;;10.80;78.84;99747.47;3567076;40;20072;-62
2022/12/29 04:52:18;;;;;;;4.57;0.90;;;;;;;10.77;78.58;99766.53;3570652;40;20064;-62
2022/12/29 04:54:44;;;;;;;3.95;1.17;;;;;;;10.82;78.40;99772.41;3567610;40;20268;-62
2022/12/29 04:57:10;;;;;;;3.08;0.77;;;;;;;10.85;77.54;99774.84;3567377;40;20071;-62
2022/12/29 04:59:35;;;;;;;3.42;0.93;;;;;;;10.83;77.73;99771.41;3566799;40;20450;-62
2022/12/29 05:02:01;;;;;;;6.40;1.10;;;;;;;10.83;76.89;99779.47;3566012;40;20064;-62
2022/12/29 05:04:26;;;;;;;6.10;1.33;;;;;;;10.78;76.43;99770.91;3569285;40;20402;-62
2022/12/29 05:06:52;;;;;;;2.30;0.98;;;;;;;10.82;76.06;99777.78;3568238;40;20167;-62
2022/12/29 05:09:17;;;;;;;4.07;0.95;;;;;;;10.77;75.54;99769.22;3567924;40;20060;-62
2022/12/29 05:11:43;;;;;;;4.80;1.17;;;;;;;10.85;74.79;99796.34;3567486;40;20126;-62
2022/12/29 05:14:09;;;;;;;6.07;1.02;;;;;;;10.88;74.88;99792.56;3567462;40;20057;-61
2022/12/29 05:16:34;;;;;;;3.88;1.25;;;;;;;10.92;74.12;99804.78;3567054;40;20052;-62
2022/12/29 05:19:00;;;;;;;6.13;1.27;;;;;;;10.92;74.20;99802.09;3566893;40;20057;-62
2022/12/29 05:21:25;;;;;;;4.68;1.48;;;;;;;10.94;74.41;99808.19;3569368;40;20065;-61
2022/12/29 05:23:51;;;;;;;6.00;1.42;;;;;;;10.94;74.97;99824.31;3567512;40;20053;-62
2022/12/29 05:26:16;;;;;;;4.28;1.25;;;;;;;10.89;74.52;99789.75;3568388;40;20129;-61
2022/12/29 05:28:42;;;;;;;3.92;1.05;;;;;;;10.98;74.47;99803.44;3566274;40;20311;-61
2022/12/29 05:31:08;;;;;;;3.78;1.30;;;;;;;11.00;75.16;99812.22;3566524;40;20049;-61
2022/12/29 05:33:33;;;;;;;6.93;1.58;;;;;;;11.02;74.70;99799.53;3566895;40;20079;-61
2022/12/29 05:36:08;;;;;;;4.35;1.10;;;;;;;11.07;74.58;99805.41;3564017;40;20045;-62
2022/12/29 05:38:35;;;;;;;4.57;1.30;;;;;;;11.07;74.68;99802.72;3563255;40;20411;-62
2022/12/29 05:41:00;;;;;;;4.22;1.00;;;;;;;11.05;75.25;99818.09;3566690;40;20814;-61
2022/12/29 05:43:26;;;;;;;5.93;1.30;;;;;;;11.10;74.32;99813.19;3564904;40;20068;-61
2022/12/29 05:45:53;;;;;;;3.63;0.82;;;;;;;11.09;74.04;99819.56;3562502;40;20347;-62
2022/12/29 05:48:19;;;;;;;2.53;1.00;;;;;;;11.03;73.73;99811.97;3567189;40;20294;-62
2022/12/29 05:50:50;;;;;;;4.80;1.00;;;;;;;11.14;72.43;99830.81;3563990;40;20057;-61
2022/12/29 05:53:16;;;;;;;3.38;0.75;;;;;;;11.18;72.71;99832.28;3563751;40;20341;-61
2022/12/29 05:55:44;;;;;;;7.78;1.42;;;;;;;11.21;72.28;99842.78;3566796;40;20057;-62
2022/12/29 05:58:09;;;;;;;7.45;1.23;;;;;;;11.26;71.20;99845.97;3567425;40;20075;-61
2022/12/29 06:00:35;;;;;;;7.10;1.17;;;;;;;11.33;71.60;99836.44;3567571;40;20431;-61
2022/12/29 06:03:01;;;;;;;3.47;0.90;;;;;;;11.35;71.39;99829.09;3565921;40;20053;-60
2022/12/29 06:05:26;;;;;;;4.80;1.17;;;;;;;11.37;71.18;99832.50;3567934;40;20060;-61
2022/12/29 06:07:52;;;;;;;4.55;1.05;;;;;;;11.44;71.38;99842.78;3566600;40;20072;-59
2022/12/29 06:10:18;;;;;;;5.30;1.27;;;;;;;11.44;71.64;99856.22;3566902;40;20061;-60
2022/12/29 06:12:43;;;;;;;4.43;1.30;;;;;;;11.47;71.09;99847.91;3565904;40;20170;-60
2022/12/29 06:15:10;;;;;;;3.33;1.17;;;;;;;11.39;70.58;99846.69;3564813;40;20284;-60
2022/12/29 06:17:35;;;;;;;4.50;1.02;;;;;;;11.49;70.62;99851.34;3565798;40;20310;-60
2022/12/29 06:20:02;;;;;;;5.95;1.58;;;;;;;11.46;69.97;99830.06;3567924;40;20041;-60
2022/12/29 06:22:28;;;;;;;3.75;1.08;;;;;;;11.46;69.86;99828.22;3566920;40;20305;-60
2022/12/29 06:24:53;;;;;;;3.38;1.25;;;;;;;11.55;69.55;99837.38;3564919;40;20095;-60
2022/12/29 06:27:19;;;;;;;6.03;0.80;;;;;;;11.57;69.93;99828.19;3566366;40;20072;-59
2022/12/29 06:29:44;;;;;;;6.97;1.30;;;;;;;11.58;69.93;99832.59;3563154;40;20061;-59
2022/12/29 06:32:10;;;;;;;4.55;1.23;;;;;;;11.48;68.94;99826.25;3564019;40;20095;-60
2022/12/29 06:34:36;;;;;;;4.28;1.08;;;;;;;11.51;68.91;99838.59;3563436;40;20072;-60
2022/12/29 06:37:02;;;;;;;3.47;0.80;;;;;;;11.49;69.25;99830.66;3563598;40;20057;-60
2022/12/29 06:39:28;;;;;;;4.82;1.55;;;;;;;11.33;69.25;99809.53;3565110;40;20067;-60
2022/12/29 06:41:54;;;;;;;3.05;0.98;;;;;;;11.39;69.67;99835.94;3566299;40;20057;-60
2022/12/29 06:44:21;;;;;;;3.97;1.23;;;;;;;11.38;69.46;99826.16;3568083;40;20063;-59
2022/12/29 06:46:47;;;;;;;4.70;1.30;;;;;;;11.39;68.94;99838.63;3567038;40;20394;-59
2022/12/29 06:49:13;;;;;;;3.95;1.33;;;;;;;11.39;69.57;99822.47;3565839;40;20128;-59
2022/12/29 06:51:38;;;;;;;5.88;0.95;;;;;;;11.38;69.52;99828.84;3568062;40;20339;-60
2022/12/29 06:54:04;;;;;;;6.07;1.45;;;;;;;11.40;69.06;99828.72;3567311;40;20430;-59
2022/12/29 06:56:29;;;;;;;4.10;1.08;;;;;;;11.34;69.03;99834.59;3568322;40;20268;-60
2022/12/29 06:58:55;;;;;;;7.55;1.58;;;;;;;11.36;68.93;99830.81;3565694;40;20082;-61
2022/12/29 07:01:21;;;;;;;7.32;1.77;;;;;;;11.36;69.09;99849.63;3564891;40;20052;-60
2022/12/29 07:03:46;;;;;;;2.85;1.33;;;;;;;11.39;69.18;99854.78;3563255;40;20065;-60
2022/12/29 07:06:12;;;;;;;9.38;1.40;;;;;;;11.44;68.35;99848.16;3563986;40;20052;-61
2022/12/29 07:08:38;;;;;;;6.22;1.30;;;;;;;11.49;68.61;99862.09;3564803;40;20351;-60
2022/12/29 07:11:05;;;;;;;7.82;1.45;;;;;;;11.50;68.40;99848.50;3566568;40;21919;-60
2022/12/29 07:13:30;;;;;;;3.83;1.05;;;;;;;11.48;67.68;99844.22;3568608;40;20058;-61
2022/12/29 07:15:56;;;;;;;4.00;1.33;;;;;;;11.53;67.78;99859.03;3565451;40;20060;-61
2022/12/29 07:18:22;;;;;;;6.45;1.20;;;;;;;11.52;67.19;99865.41;3565481;40;20537;-60
2022/12/29 07:20:47;;;;;;;7.97;1.73;;;;;;;11.51;66.99;99861.00;3568279;40;20315;-61
2022/12/29 07:23:13;;;;;;;8.35;1.40;;;;;;;11.52;66.39;99864.53;3563504;40;20088;-60
2022/12/29 07:25:41;;;;;;;7.93;2.10;;;;;;;11.54;66.76;99878.72;3565011;40;20108;-61
2022/12/29 07:28:07;;;;;;;6.50;1.50;;;;;;;11.55;66.35;99883.13;3561371;40;20056;-61
2022/12/29 07:30:32;;;;;;;7.13;1.30;;;;;;;11.54;66.05;99892.16;3565974;40;20053;-61
2022/12/29 07:32:58;;;;;;;6.32;1.45;;;;;;;11.51;65.79;99893.28;3564970;40;20069;-62
2022/12/29 07:35:24;;;;;;;7.40;1.70;;;;;;;11.50;66.05;99890.72;3560222;40;20077;-61
2022/12/29 07:37:50;;;;;;;5.30;1.45;;;;;;;11.48;65.00;99889.97;3564854;40;20303;-62
2022/12/29 07:40:15;;;;;;;6.70;1.58;;;;;;;11.45;64.99;99888.41;3565245;40;20057;-62
2022/12/29 07:42:41;;;;;;;10.65;1.90;;;;;;;11.42;65.29;99885.06;3564383;40;20049;-62
2022/12/29 07:45:09;;;;;;;6.45;1.65;;;;;;;11.41;65.12;99886.06;3563083;40;20060;-62
2022/12/29 07:47:34;;;;;;;7.53;1.45;;;;;;;11.39;65.98;99891.59;3566272;40;20092;-62
2022/12/29 07:50:00;;;;;;;8.68;1.70;;;;;;;11.35;65.93;99884.72;3564205;40;20049;-62
2022/12/29 07:52:26;;;;;;;7.72;1.73;;;;;;;11.45;65.75;99883.03;3568676;40;20087;-62
2022/12/29 07:54:51;;;;;;;10.52;2.53;;;;;;;11.50;65.51;99893.41;3564774;40;20069;-62
2022/12/29 07:57:17;;;;;;;6.68;1.35;;;;;;;11.53;65.52;99893.16;3566251;40;20604;-62
2022/12/29 07:59:43;;;;;;;7.13;1.80;;;;;;;11.51;65.49;99887.03;3567264;40;20303;-62
2022/12/29 08:02:12;;;;;;;7.47;1.83;;;;;;;11.48;65.70;99893.53;3568024;40;20056;-65
2022/12/29 08:04:38;;;;;;;6.90;1.52;;;;;;;11.35;65.68;99871.25;3565999;40;20052;-63
2022/12/29 08:07:03;;;;;;;9.82;2.00;;;;;;;11.56;65.14;99904.53;3566121;40;20455;-63
2022/12/29 08:09:29;;;;;;;4.88;1.50;;;;;;;11.57;65.67;99906.22;3566585;40;20072;-63
2022/12/29 08:11:55;;;;;;;8.95;1.65;;;;;;;11.59;64.86;99906.13;3566749;40;20071;-62
2022/12/29 08:14:20;;;;;;;11.20;1.48;;;;;;;11.57;65.27;99908.06;3567468;40;20206;-63
2022/12/29 08:16:46;;;;;;;9.15;1.90;;;;;;;11.48;64.64;99898.94;3564696;40;20068;-63
2022/12/29 08:19:13;;;;;;;10.57;1.73;;;;;;;10.93;64.06;99828.84;3566572;40;20057;-63
2022/12/29 08:21:39;;;;;;;8.32;1.77;;;;;;;11.54;63.86;99914.56;3566327;40;20056;-64
2022/12/29 08:24:06;;;;;;;7.63;1.80;;;;;;;11.54;63.92;99913.69;3564125;40;20049;-64
2022/12/29 08:26:32;;;;;;;7.40;1.85;;;;;;;11.43;63.31;99884.13;3564426;40;20055;-63
2022/12/29 08:28:58;;;;;;;7.35;1.70;;;;;;;11.58;62.77;99899.03;3564802;40;20068;-64
2022/12/29 08:31:24;;;;;;;6.95;1.52;;;;;;;11.54;62.88;99898.41;3568819;40;20068;-63
2022/12/29 08:33:49;;;;;;;6.30;1.90;;;;;;;11.57;63.25;99933.16;3566174;40;20049;-64
2022/12/29 08:36:15;;;;;;;11.85;1.88;;;;;;;11.65;62.55;99911.00;3569772;40;20115;-63
2022/12/29 08:38:41;;;;;;;9.02;1.95;;;;;;;11.67;62.96;99925.22;3565800;40;20278;-64
2022/12/29 08:41:07;;;;;;;7.00;1.90;;;;;;;11.69;62.68;99923.22;3566146;40;20057;-64
2022/12/29 08:43:33;;;;;;;12.30;2.17;;;;;;;11.74;62.91;99915.66;3567200;40;20065;-63
2022/12/29 08:46:00;;;;;;;10.38;2.17;;;;;;;11.63;62.73;99891.44;3567663;40;20064;-63
2022/12/29 08:48:26;;;;;;;9.63;2.30;;;;;;;11.78;62.50;99919.81;3566889;40;20063;-63
2022/12/29 08:50:53;;;;;;;4.65;1.50;;;;;;;11.78;62.44;99917.09;3564429;40;20060;-63
2022/12/29 08:53:19;;;;;;;10.13;1.77;;;;;;;11.81;62.85;99924.94;3566669;40;20137;-63
2022/12/29 08:56:00;;;;;;;7.22;1.75;;;;;;;11.81;62.70;99930.31;3568545;40;20056;-63
2022/12/29 08:58:27;;;;;;;6.35;1.60;;;;;;;11.77;62.86;99918.09;3563792;40;20056;-63
2022/12/29 09:00:57;;;;;;;7.22;1.50;;;;;;;11.81;62.60;99916.84;3567401;40;20056;-63
2022/12/29 09:03:25;;;;;;;10.10;2.05;;;;;;;11.80;62.96;99914.31;3567081;40;20085;-63
2022/12/29 09:05:53;;;;;;;6.50;1.60;;;;;;;11.80;62.23;99933.16;3564690;40;20060;-63
2022/12/29 09:08:20;;;;;;;7.80;2.20;;;;;;;11.81;62.06;99938.41;3568713;40;20060;-63
2022/12/29 09:10:46;;;;;;;10.63;2.00;;;;;;;11.86;62.56;99935.34;3564417;40;20057;-64
2022/12/29 09:13:14;;;;;;;7.88;1.77;;;;;;;11.38;62.39;99855.75;3568223;40;20067;-63
2022/12/29 09:15:40;;;;;;;6.10;2.03;;;;;;;11.74;62.88;99931.81;3565581;40;20085;-64
2022/12/29 09:18:09;;;;;;;7.07;1.88;;;;;;;11.22;63.85;99841.81;3565882;40;20324;-63
2022/12/29 09:20:35;;;;;;;7.07;2.08;;;;;;;11.80;63.60;99930.47;3567407;40;20061;-63
2022/12/29 09:23:01;;;;;;;4.75;1.70;;;;;;;11.74;64.34;99944.41;3568466;40;20060;-63
2022/12/29 09:25:28;;;;;;;7.47;1.70;;;;;;;11.66;64.33;99950.41;3568422;40;20122;-63
2022/12/29 09:27:53;;;;;;;10.95;2.20;;;;;;;11.65;64.21;99959.47;3566434;40;20107;-62
2022/12/29 09:30:22;;;;;;;10.45;2.25;;;;;;;11.66;65.18;99966.56;3564083;40;20053;-63
2022/12/29 09:32:49;;;;;;;6.15;1.60;;;;;;;11.49;66.00;99967.06;3565462;40;20057;-64
2022/12/29 09:35:16;;;;;;;6.20;1.55;;;;;;;11.39;67.51;99951.63;3558831;40;20142;-62
2022/12/29 09:37:43;;;;;;;6.32;1.60;;;;;;;11.32;67.99;99973.75;3564753;40;20052;-62
2022/12/29 09:40:31;;;;;;;7.35;1.75;;;;;;;11.30;67.93;99973.88;3565886;40;20121;-63
2022/12/29 09:43:43;;;;;;;10.57;2.17;;;;;;;11.28;67.15;99974.97;3564785;40;20097;-63
2022/12/29 09:46:27;;;;;;;5.72;1.67;;;;;;;11.27;68.33;99982.19;3565525;40;20139;-63
2022/12/29 09:49:34;;;;;;;7.53;1.75;;;;;;;11.26;68.56;99991.25;3563772;40;20135;-63
2022/12/29 09:52:13;;;;;;;7.25;1.92;;;;;;;11.24;68.88;99995.88;3549467;40;20150;-63
2022/12/29 09:54:49;;;;;;;9.35;1.70;;;;;;;11.21;68.43;99993.44;3565945;40;20097;-64
2022/12/29 09:57:25;;;;;;;6.47;1.63;;;;;;;10.83;69.36;99939.94;3556677;40;20056;-64
2022/12/29 10:00:12;;;;;;;8.35;1.85;;;;;;;11.11;69.56;99997.81;3557708;40;20101;-63
2022/12/29 10:02:42;;;;;;;7.97;1.38;;;;;;;11.09;70.13;100002.44;3565236;40;20057;-64
2022/12/29 10:05:38;;;;;;;8.18;1.58;;;;;;;11.03;71.64;100021.75;3567154;40;20049;-64
2022/12/29 10:08:33;;;;;;;6.38;1.52;;;;;;;10.96;71.91;100031.28;3570732;40;20100;-63
2022/12/29 10:11:20;;;;;;;6.47;1.58;;;;;;;10.84;73.25;100051.88;3562628;40;20061;-65
2022/12/29 10:14:19;;;;;;;8.00;1.73;;;;;;;10.64;74.79;100042.63;3564084;40;20477;-63
2022/12/29 10:17:08;;;;;;;5.35;1.50;;;;;;;10.61;75.43;100053.59;3565699;40;20049;-64
2022/12/29 10:20:02;;;;;;;8.82;1.48;;;;;;;10.58;76.13;100064.56;3567950;40;20045;-63
2022/12/29 10:23:16;;;;;;;8.30;2.03;;;;;;;10.49;76.09;100059.88;3571476;40;20229;-65
2022/12/29 10:25:44;;;;;;;7.78;2.00;;;;;;;10.45;77.46;100073.53;3564066;40;20061;-68
2022/12/29 10:28:37;;;;;;;8.48;2.42;;;;;;;10.37;77.66;100077.75;3568510;40;20104;-64
2022/12/29 10:31:16;;;;;;;8.40;1.50;;;;;;;10.32;78.04;100080.78;3564132;40;20049;-64
2022/12/29 10:33:43;;;;;;;8.35;2.58;;;;;;;10.32;78.31;100075.41;3566571;40;20060;-64
2022/12/29 10:36:16;;;;;;;8.02;2.05;;;;;;;10.30;78.64;100093.47;3569421;40;20055;-64
2022/12/29 10:38:53;;;;;;;;;;;;;;;10.26;77.97;100086.59;3569328;40;20052;-64
2022/12/29 10:41:37;;;;;;;9.90;2.03;;;;;;;10.26;79.29;100086.59;3567106;40;19951;-64
2022/12/29 10:44:03;;;;;;;8.55;1.80;;;;;;;10.30;78.21;100101.50;3568533;40;20068;-64
2022/12/29 10:46:36;;;;;;;8.23;1.70;;;;;;;10.36;78.26;100101.06;3567469;40;20347;-63
2022/12/29 10:49:02;;;;;;;9.18;2.15;;;;;;;9.83;77.68;100014.50;3554978;40;20387;-64
2022/12/29 10:51:38;;;;;;;4.93;1.52;;;;;;;10.36;78.17;100093.00;3569311;40;20065;-65
2022/12/29 10:54:23;;;;;;;10.27;1.92;;;;;;;10.41;78.21;100101.59;3555444;40;20053;-64
2022/12/29 10:57:03;;;;;;;5.45;1.60;;;;;;;10.40;78.15;100132.16;3567012;40;20142;-64
2022/12/29 10:59:35;;;;;;;10.63;2.33;;;;;;;10.43;78.11;100126.56;3567288;40;20060;-64
2022/12/29 11:02:09;;;;;;;9.02;2.00;;;;;;;10.42;77.78;100121.28;3567477;40;20127;-65
2022/12/29 11:05:08;;;;;;;9.00;1.88;;;;;;;10.36;79.07;100136.00;3557041;40;20049;-65
2022/12/29 11:07:35;;;;;;;10.10;1.85;;;;;;;10.30;80.24;100125.69;3568708;40;20049;-64
2022/12/29 11:10:32;;;;;;;8.00;1.75;;;;;;;10.25;81.28;100141.28;3565354;40;20380;-64
2022/12/29 11:13:11;;;;;;;6.05;1.63;;;;;;;10.20;81.16;100146.09;3561258;40;20060;-66
2022/12/29 11:15:47;;;;;;;10.27;2.05;;;;;;;10.17;81.90;100138.25;3570115;40;20065;-64
2022/12/29 11:18:37;;;;;;;11.82;3.47;;;;;;;10.16;81.23;100139.25;3564367;40;20061;-64
2022/12/29 11:21:07;;;;;;;13.65;2.90;;;;;;;10.14;81.15;100122.34;3561847;40;20044;-64
2022/12/29 11:23:37;;;;;;;10.40;2.28;;;;;;;10.23;80.74;100146.72;3559110;40;20060;-63
2022/12/29 11:26:10;;;;;;;10.98;2.03;;;;;;;10.28;79.90;100140.22;3567144;40;20338;-64
2022/12/29 11:28:37;;;;;;;14.38;1.95;;;;;;;9.68;79.97;100034.38;3566750;40;20061;-64
2022/12/29 11:31:06;;;;;;;11.02;2.08;;;;;;;9.97;79.22;100070.72;3561942;40;20053;-64
2022/12/29 11:33:35;;;;;;;9.10;2.35;;;;;;;10.50;79.13;100152.94;3570548;40;20056;-64
2022/12/29 11:36:12;;;;;;;12.73;2.53;;;;;;;10.51;77.50;100138.56;3569137;40;20041;-64
2022/12/29 11:38:49;;;;;;;8.77;1.88;;;;;;;10.58;77.58;100151.44;3564121;40;20093;-64
2022/12/29 11:41:25;;;;;;;10.25;2.42;;;;;;;10.61;77.38;100161.09;3567738;40;20048;-65
2022/12/29 11:43:55;;;;;;;8.65;2.20;;;;;;;10.60;76.94;100172.84;3567913;40;20057;-65
2022/12/29 11:46:39;;;;;;;11.48;2.42;;;;;;;10.62;77.09;100173.56;3565148;40;20404;-64
2022/12/29 11:49:05;;;;;;;11.95;2.53;;;;;;;10.65;76.58;100173.34;3563605;40;20053;-64
2022/12/29 11:51:47;;;;;;;9.75;2.38;;;;;;;10.68;76.92;100165.06;3564982;40;20076;-64
2022/12/29 11:54:27;;;;;;;11.65;2.33;;;;;;;10.77;76.66;100177.81;3563822;40;20060;-64
2022/12/29 11:56:54;;;;;;;10.45;2.28;;;;;;;10.89;76.02;100176.06;3568151;40;20064;-64
2022/12/29 11:59:36;;;;;;;10.07;1.98;;;;;;;10.93;75.39;100177.56;3566838;40;20080;-64
2022/12/29 12:02:27;;;;;;;12.63;2.28;;;;;;;10.96;74.47;100171.09;3570148;40;20057;-65
2022/12/29 12:05:05;;;;;;;9.43;2.63;;;;;;;11.04;74.28;100168.72;3560309;40;20093;-65
2022/12/29 12:08:14;;;;;;;10.38;2.22;;;;;;;11.09;73.38;100167.38;3567130;40;20058;-65
2022/12/29 12:10:52;;;;;;;10.00;2.33;;;;;;;11.19;72.85;100161.31;3567681;40;20063;-65
2022/12/29 12:14:11;;;;;;;9.30;3.25;;;;;;;11.18;72.01;100159.59;3567999;40;20069;-65
2022/12/29 12:16:48;;;;;;;9.45;2.28;;;;;;;11.30;71.56;100166.75;3557213;40;20056;-65
2022/12/29 12:19:35;;;;;;;8.32;2.30;;;;;;;11.30;71.06;100170.31;3566993;40;20367;-64
2022/12/29 12:22:12;;;;;;;10.40;2.35;;;;;;;11.30;70.83;100181.06;3568107;40;20042;-64
2022/12/29 12:25:23;;;;;;;9.15;2.20;;;;;;;10.60;70.18;100062.66;3564137;40;20053;-64
2022/12/29 12:28:24;;;;;;;10.50;2.30;;;;;;;11.36;70.08;100179.75;3553168;40;20491;-64
2022/12/29 12:30:57;;;;;;;13.68;2.65;;;;;;;11.46;70.83;100172.69;3568552;40;20065;-64